Time;durP1;ratioP1;P1;durP2;ratioP2;P2;SDS_P1;SDS_P2;PMS_P1;PMS_P2;Temp;Humidity;BMP_temperature;BMP_pressure;BME280_temperature;BME280_humidity;BME280_pressure;Samples;Min_cycle;Max_cycle;Signal;HPM_P1;HPM_P2
2022/03/29 00:01:05;;;;;;;25.97;15.03;;;;;;;;;;5095727;28;20825;-71
2022/03/29 00:03:32;;;;;;;21.83;15.23;;;;;;;;;;5096328;28;20454;-71
2022/03/29 00:05:59;;;;;;;25.43;15.00;;;;;;;;;;5096613;28;20474;-71
2022/03/29 00:08:26;;;;;;;24.90;15.40;;;;;;;;;;5096683;28;20968;-71
2022/03/29 00:10:53;;;;;;;23.47;14.17;;;;;;;;;;5096649;28;20458;-71
2022/03/29 00:13:20;;;;;;;25.80;14.20;;;;;;;;;;5096683;28;20462;-71
2022/03/29 00:15:48;;;;;;;28.93;16.67;;;;;;;;;;5096052;28;20970;-71
2022/03/29 00:18:16;;;;;;;32.33;16.60;;;;;;;;;;5096490;28;20842;-71
2022/03/29 00:20:43;;;;;;;30.77;15.80;;;;;;;;;;5096463;28;20459;-71
2022/03/29 00:23:10;;;;;;;25.00;14.30;;;;;;;;;;5096264;28;20458;-71
2022/03/29 00:25:37;;;;;;;26.40;15.87;;;;;;;;;;5095773;28;20493;-71
2022/03/29 00:28:05;;;;;;;28.97;15.53;;;;;;;;;;5096217;28;20478;-71
2022/03/29 00:30:32;;;;;;;26.10;14.20;;;;;;;;;;5096390;28;20447;-71
2022/03/29 00:32:59;;;;;;;28.03;14.57;;;;;;;;;;5095110;28;20465;-70
2022/03/29 00:35:27;;;;;;;28.70;16.50;;;;;;;;;;5095817;28;20955;-70
2022/03/29 00:37:56;;;;;;;26.13;15.37;;;;;;;;;;5096014;28;20478;-70
2022/03/29 00:40:23;;;;;;;33.43;15.10;;;;;;;;;;5096347;28;20813;-70
2022/03/29 00:42:50;;;;;;;21.07;13.83;;;;;;;;;;5095873;28;20451;-71
2022/03/29 00:45:17;;;;;;;24.53;14.50;;;;;;;;;;5095537;28;20490;-71
2022/03/29 00:47:44;;;;;;;20.70;14.07;;;;;;;;;;5096185;28;20971;-70
2022/03/29 00:50:11;;;;;;;20.93;14.20;;;;;;;;;;5095888;28;20454;-71
2022/03/29 00:52:40;;;;;;;22.97;14.43;;;;;;;;;;5093865;28;20458;-70
2022/03/29 00:55:08;;;;;;;27.57;14.33;;;;;;;;;;5095096;28;20811;-70
2022/03/29 00:57:35;;;;;;;28.33;15.03;;;;;;;;;;5095711;28;20474;-71
2022/03/29 01:00:03;;;;;;;25.77;15.00;;;;;;;;;;5095817;28;20459;-70
2022/03/29 01:02:30;;;;;;;22.77;14.80;;;;;;;;;;5095840;28;20447;-71
2022/03/29 01:04:57;;;;;;;20.83;13.80;;;;;;;;;;5094746;28;20455;-71
2022/03/29 01:07:27;;;;;;;24.47;15.27;;;;;;;;;;5095513;28;20457;-70
2022/03/29 01:09:56;;;;;;;24.20;14.47;;;;;;;;;;5095488;28;20489;-71
2022/03/29 01:12:24;;;;;;;18.73;14.30;;;;;;;;;;5094260;28;20450;-70
2022/03/29 01:14:52;;;;;;;19.10;13.77;;;;;;;;;;5094809;28;20477;-70
2022/03/29 01:20:05;;;;;;;21.47;14.23;;;;;;;;;;5095476;28;20497;-71
2022/03/29 01:22:34;;;;;;;28.37;14.27;;;;;;;;;;5095116;28;20469;-71
2022/03/29 01:25:01;;;;;;;25.43;14.33;;;;;;;;;;5094658;28;20442;-71
2022/03/29 01:27:32;;;;;;;28.57;13.90;;;;;;;;;;5095150;28;20987;-71
2022/03/29 01:30:00;;;;;;;18.07;11.80;;;;;;;;;;5095168;28;20496;-71
2022/03/29 01:32:29;;;;;;;21.07;12.33;;;;;;;;;;5093888;28;20450;-71
2022/03/29 01:34:57;;;;;;;20.70;12.20;;;;;;;;;;5094394;28;20486;-71
2022/03/29 01:37:24;;;;;;;21.03;12.50;;;;;;;;;;5095067;28;21055;-71
2022/03/29 01:39:52;;;;;;;21.57;14.10;;;;;;;;;;5094950;28;20822;-72
2022/03/29 01:42:20;;;;;;;23.93;14.00;;;;;;;;;;5094930;28;21041;-71
2022/03/29 01:44:47;;;;;;;19.47;12.60;;;;;;;;;;5094225;28;20461;-71
2022/03/29 01:47:14;;;;;;;21.07;12.50;;;;;;;;;;5094535;28;20490;-71
2022/03/29 01:49:41;;;;;;;19.57;12.87;;;;;;;;;;5094713;28;20451;-71
2022/03/29 01:52:08;;;;;;;18.40;10.90;;;;;;;;;;5091954;28;20931;-71
2022/03/29 01:54:35;;;;;;;19.70;13.30;;;;;;;;;;5094181;28;20489;-71
2022/03/29 01:57:04;;;;;;;19.73;14.80;;;;;;;;;;5094479;28;20477;-71
2022/03/29 02:00:30;;;;;;;25.67;14.40;;;;;;;;;;5094412;28;20528;-71
2022/03/29 02:02:18;;;;;;;19.00;12.70;;;;;;;;;;5094386;28;20442;-71
2022/03/29 02:04:45;;;;;;;23.03;14.27;;;;;;;;;;5093938;28;20454;-71
2022/03/29 02:07:12;;;;;;;16.50;12.63;;;;;;;;;;5094173;28;20497;-71
2022/03/29 02:09:40;;;;;;;23.17;13.83;;;;;;;;;;5094496;28;20446;-71
2022/03/29 02:12:12;;;;;;;20.23;14.37;;;;;;;;;;5094373;28;20463;-71
2022/03/29 02:14:39;;;;;;;21.60;12.97;;;;;;;;;;5093741;28;20486;-71
2022/03/29 02:17:06;;;;;;;19.83;12.47;;;;;;;;;;5094252;28;20462;-71
2022/03/29 02:19:33;;;;;;;18.17;12.50;;;;;;;;;;5094194;28;20470;-71
2022/03/29 02:22:00;;;;;;;24.43;12.47;;;;;;;;;;5093883;28;20467;-71
2022/03/29 02:24:27;;;;;;;21.20;11.83;;;;;;;;;;5093433;28;20463;-71
2022/03/29 02:26:54;;;;;;;19.73;12.07;;;;;;;;;;5093923;28;20998;-70
2022/03/29 02:29:23;;;;;;;19.00;12.23;;;;;;;;;;5094095;28;20883;-70
2022/03/29 02:31:50;;;;;;;22.10;13.00;;;;;;;;;;5092532;28;20451;-70
2022/03/29 02:34:17;;;;;;;17.30;12.17;;;;;;;;;;5093285;28;20454;-70
2022/03/29 02:36:44;;;;;;;18.97;12.70;;;;;;;;;;5094081;28;20958;-70
2022/03/29 02:39:11;;;;;;;20.70;13.23;;;;;;;;;;5093852;28;20492;-70
2022/03/29 02:41:38;;;;;;;18.90;10.57;;;;;;;;;;5093933;28;20458;-71
2022/03/29 02:44:06;;;;;;;18.57;11.50;;;;;;;;;;5093070;28;20459;-70
2022/03/29 02:46:34;;;;;;;16.17;10.93;;;;;;;;;;5093722;28;21015;-70
2022/03/29 02:49:01;;;;;;;22.23;11.93;;;;;;;;;;5093487;28;20485;-71
2022/03/29 02:51:28;;;;;;;22.53;11.33;;;;;;;;;;5093667;28;20465;-70
2022/03/29 02:53:55;;;;;;;19.23;11.40;;;;;;;;;;5090374;28;20458;-71
2022/03/29 02:56:22;;;;;;;21.10;12.07;;;;;;;;;;5093503;28;20442;-71
2022/03/29 02:58:50;;;;;;;20.33;11.47;;;;;;;;;;5093736;28;20475;-70
2022/03/29 03:01:17;;;;;;;15.70;12.47;;;;;;;;;;5093425;28;20450;-70
2022/03/29 03:03:46;;;;;;;20.10;12.20;;;;;;;;;;5092658;28;20446;-70
2022/03/29 03:06:14;;;;;;;19.03;12.00;;;;;;;;;;5093295;28;20497;-70
2022/03/29 03:08:41;;;;;;;18.23;11.70;;;;;;;;;;5093239;28;20565;-70
2022/03/29 03:11:08;;;;;;;14.20;10.97;;;;;;;;;;5093479;28;20497;-70
2022/03/29 03:13:35;;;;;;;16.90;11.00;;;;;;;;;;5092901;28;20458;-70
2022/03/29 03:16:03;;;;;;;20.53;11.97;;;;;;;;;;5093001;28;20447;-70
2022/03/29 03:18:30;;;;;;;18.90;11.60;;;;;;;;;;5093031;28;20486;-70
2022/03/29 03:20:58;;;;;;;19.80;12.43;;;;;;;;;;5093271;28;20984;-70
2022/03/29 03:23:26;;;;;;;18.30;11.67;;;;;;;;;;5092707;28;20471;-70
2022/03/29 03:25:54;;;;;;;22.07;12.60;;;;;;;;;;5092863;28;20465;-70
2022/03/29 03:28:21;;;;;;;20.73;13.93;;;;;;;;;;5092835;28;20494;-70
2022/03/29 03:30:48;;;;;;;19.30;11.90;;;;;;;;;;5093026;28;20983;-71
2022/03/29 03:36:20;;;;;;;19.27;14.47;;;;;;;;;;5092628;28;20479;-70
2022/03/29 03:38:47;;;;;;;17.10;11.50;;;;;;;;;;5092863;28;20979;-71
2022/03/29 03:41:14;;;;;;;18.93;12.57;;;;;;;;;;5092771;28;20454;-71
2022/03/29 03:43:42;;;;;;;20.50;11.20;;;;;;;;;;5092387;28;20462;-71
2022/03/29 03:46:09;;;;;;;26.90;12.93;;;;;;;;;;5092509;28;20493;-70
2022/03/29 03:48:36;;;;;;;22.10;11.57;;;;;;;;;;5092600;28;20470;-70
2022/03/29 03:51:03;;;;;;;20.80;13.13;;;;;;;;;;5092708;28;20450;-70
2022/03/29 03:53:32;;;;;;;19.63;12.00;;;;;;;;;;5089480;28;20819;-71
2022/03/29 03:55:59;;;;;;;22.13;12.67;;;;;;;;;;5092595;28;20454;-70
2022/03/29 03:58:26;;;;;;;20.33;12.93;;;;;;;;;;5092612;28;20470;-71
2022/03/29 04:00:53;;;;;;;23.70;12.50;;;;;;;;;;5092639;28;20455;-71
2022/03/29 04:03:20;;;;;;;19.30;12.00;;;;;;;;;;5092622;28;20459;-70
2022/03/29 04:05:48;;;;;;;20.70;12.13;;;;;;;;;;5092175;28;21030;-70
2022/03/29 04:08:15;;;;;;;22.03;13.87;;;;;;;;;;5092107;28;20490;-70
2022/03/29 04:10:43;;;;;;;22.67;14.87;;;;;;;;;;5092839;28;20450;-70
2022/03/29 04:13:10;;;;;;;16.43;11.80;;;;;;;;;;5092318;28;20447;-71
2022/03/29 04:15:38;;;;;;;20.10;13.23;;;;;;;;;;5091932;28;20459;-70
2022/03/29 04:18:05;;;;;;;22.87;13.00;;;;;;;;;;5092562;28;20817;-70
2022/03/29 04:20:32;;;;;;;19.10;12.40;;;;;;;;;;5092417;28;20813;-70
2022/03/29 04:22:59;;;;;;;29.73;16.60;;;;;;;;;;5092398;28;20481;-70
2022/03/29 04:25:26;;;;;;;22.10;13.07;;;;;;;;;;5091829;28;20496;-70
2022/03/29 04:27:55;;;;;;;18.20;12.27;;;;;;;;;;5092075;28;20497;-70
2022/03/29 04:30:22;;;;;;;20.10;11.77;;;;;;;;;;5092465;28;20442;-70
2022/03/29 04:32:49;;;;;;;23.63;13.60;;;;;;;;;;5092423;28;20959;-70
2022/03/29 04:35:16;;;;;;;23.83;12.97;;;;;;;;;;5091769;28;20446;-70
2022/03/29 04:37:43;;;;;;;25.30;13.80;;;;;;;;;;5092297;28;20481;-70
2022/03/29 04:40:12;;;;;;;24.27;15.20;;;;;;;;;;5092327;28;20449;-70
2022/03/29 04:42:43;;;;;;;37.83;23.20;;;;;;;;;;5092164;28;20467;-70
2022/03/29 04:45:12;;;;;;;23.77;15.03;;;;;;;;;;5091588;28;20458;-70
2022/03/29 04:47:39;;;;;;;29.63;17.93;;;;;;;;;;5095857;28;21093;-71
2022/03/29 04:50:06;;;;;;;40.47;33.40;;;;;;;;;;5096012;28;20461;-70
2022/03/29 04:52:34;;;;;;;39.53;31.93;;;;;;;;;;5093458;28;20455;-71
2022/03/29 04:55:01;;;;;;;34.83;25.73;;;;;;;;;;5095258;28;20449;-70
2022/03/29 04:57:28;;;;;;;23.33;18.73;;;;;;;;;;5095769;28;20450;-70
2022/03/29 04:59:55;;;;;;;24.90;18.47;;;;;;;;;;5095526;28;20458;-70
2022/03/29 05:02:24;;;;;;;25.43;18.80;;;;;;;;;;5095621;28;20453;-70
2022/03/29 05:04:51;;;;;;;27.47;18.03;;;;;;;;;;5094977;28;20901;-70
2022/03/29 05:07:18;;;;;;;25.13;16.10;;;;;;;;;;5095552;28;20493;-70
2022/03/29 05:09:45;;;;;;;21.93;14.47;;;;;;;;;;5095543;28;20454;-70
2022/03/29 05:12:12;;;;;;;30.93;17.10;;;;;;;;;;5095535;28;20446;-70
2022/03/29 05:14:39;;;;;;;28.80;17.73;;;;;;;;;;5094830;28;20940;-70
2022/03/29 05:17:06;;;;;;;22.23;14.20;;;;;;;;;;5095381;28;20459;-70
2022/03/29 05:19:34;;;;;;;31.67;16.53;;;;;;;;;;5095472;28;20479;-70
2022/03/29 05:22:02;;;;;;;26.10;15.20;;;;;;;;;;5095173;28;20469;-71
2022/03/29 05:24:29;;;;;;;28.67;17.20;;;;;;;;;;5094805;28;20503;-70
2022/03/29 05:26:56;;;;;;;22.30;15.07;;;;;;;;;;5095003;28;20890;-72
2022/03/29 05:29:25;;;;;;;23.77;15.10;;;;;;;;;;5095204;28;20841;-71
2022/03/29 05:31:52;;;;;;;25.10;14.40;;;;;;;;;;5094030;28;20512;-70
2022/03/29 05:34:19;;;;;;;25.87;16.30;;;;;;;;;;5094562;28;20450;-70
2022/03/29 05:36:47;;;;;;;30.30;15.40;;;;;;;;;;5094953;28;20457;-70
2022/03/29 05:39:14;;;;;;;40.77;15.30;;;;;;;;;;5095016;28;20467;-70
2022/03/29 05:41:42;;;;;;;28.00;14.70;;;;;;;;;;5095061;28;20450;-70
2022/03/29 05:44:09;;;;;;;31.50;14.03;;;;;;;;;;5094194;28;20900;-70
2022/03/29 05:49:21;;;;;;;27.63;12.87;;;;;;;;;;5094782;28;20445;-70
2022/03/29 05:51:52;;;;;;;20.53;13.53;;;;;;;;;;5094512;28;20443;-71
2022/03/29 05:54:19;;;;;;;20.70;12.73;;;;;;;;;;5093794;28;20450;-70
2022/03/29 05:56:46;;;;;;;27.17;14.83;;;;;;;;;;5094377;28;20457;-70
2022/03/29 05:59:13;;;;;;;19.00;11.80;;;;;;;;;;5094153;28;20884;-70
2022/03/29 06:01:40;;;;;;;25.63;13.87;;;;;;;;;;5094587;28;20450;-71
2022/03/29 06:04:08;;;;;;;22.47;14.37;;;;;;;;;;5093954;28;20450;-71
2022/03/29 06:06:36;;;;;;;16.57;11.57;;;;;;;;;;5094388;28;20446;-70
2022/03/29 06:09:05;;;;;;;21.90;13.57;;;;;;;;;;5094241;28;20479;-71
2022/03/29 06:11:32;;;;;;;24.70;11.13;;;;;;;;;;5094378;28;20900;-70
2022/03/29 06:14:00;;;;;;;23.00;13.10;;;;;;;;;;5093619;28;20462;-70
2022/03/29 06:16:27;;;;;;;23.77;13.30;;;;;;;;;;5094324;28;20901;-70
2022/03/29 06:18:54;;;;;;;22.20;13.70;;;;;;;;;;5094274;28;20494;-70
2022/03/29 06:21:24;;;;;;;30.13;14.60;;;;;;;;;;5093363;28;20447;-70
2022/03/29 06:23:51;;;;;;;18.57;13.17;;;;;;;;;;5089629;28;20940;-71
2022/03/29 06:26:19;;;;;;;19.73;12.60;;;;;;;;;;5094168;28;20470;-71
2022/03/29 06:28:47;;;;;;;17.30;11.67;;;;;;;;;;5093722;28;20502;-71
2022/03/29 06:31:14;;;;;;;33.93;12.90;;;;;;;;;;5093852;28;20454;-70
2022/03/29 06:33:41;;;;;;;21.10;14.40;;;;;;;;;;5093415;28;20551;-70
2022/03/29 06:36:08;;;;;;;22.40;12.30;;;;;;;;;;5093713;28;20455;-70
2022/03/29 06:38:35;;;;;;;24.03;12.70;;;;;;;;;;5093937;28;20473;-70
2022/03/29 06:41:02;;;;;;;16.13;11.40;;;;;;;;;;5094016;28;20455;-71
2022/03/29 06:43:34;;;;;;;20.57;12.80;;;;;;;;;;5093351;28;20796;-70
2022/03/29 06:46:01;;;;;;;19.43;12.30;;;;;;;;;;5093810;28;20477;-71
2022/03/29 06:48:28;;;;;;;19.97;11.67;;;;;;;;;;5093527;28;20512;-70
2022/03/29 06:50:55;;;;;;;16.90;12.20;;;;;;;;;;5093658;28;21069;-70
2022/03/29 06:53:23;;;;;;;16.60;12.30;;;;;;;;;;5091030;28;20477;-71
2022/03/29 06:55:51;;;;;;;20.33;13.43;;;;;;;;;;5093232;28;20913;-70
2022/03/29 06:58:19;;;;;;;13.97;10.97;;;;;;;;;;5093458;28;20964;-71
2022/03/29 07:00:47;;;;;;;13.17;10.30;;;;;;;;;;5093527;28;20458;-71
2022/03/29 07:03:14;;;;;;;12.30;10.33;;;;;;;;;;5093350;28;20466;-71
2022/03/29 07:05:42;;;;;;;27.70;12.13;;;;;;;;;;5092741;28;20465;-71
2022/03/29 07:08:10;;;;;;;15.27;11.03;;;;;;;;;;5093084;28;20487;-71
2022/03/29 07:13:23;;;;;;;15.97;11.53;;;;;;;;;;5093129;28;20480;-71
2022/03/29 07:15:51;;;;;;;19.70;12.50;;;;;;;;;;5092695;28;20465;-71
2022/03/29 07:18:19;;;;;;;17.90;12.00;;;;;;;;;;5093086;28;20474;-70
2022/03/29 07:20:46;;;;;;;18.33;13.07;;;;;;;;;;5093122;28;20454;-71
2022/03/29 07:23:13;;;;;;;23.40;13.50;;;;;;;;;;5092914;28;20455;-71
2022/03/29 07:25:41;;;;;;;20.27;12.93;;;;;;;;;;5092437;28;20453;-71
2022/03/29 07:28:11;;;;;;;16.00;11.23;;;;;;;;;;5092746;28;20536;-71
2022/03/29 07:30:41;;;;;;;16.37;11.40;;;;;;;;;;5093278;28;20462;-71
2022/03/29 07:33:10;;;;;;;15.30;10.20;;;;;;;;;;5092747;28;20451;-71
2022/03/29 07:35:37;;;;;;;14.67;12.17;;;;;;;;;;5092167;28;20458;-71
2022/03/29 07:38:07;;;;;;;15.17;10.17;;;;;;;;;;5092781;28;20516;-71
2022/03/29 07:40:35;;;;;;;16.70;10.53;;;;;;;;;;5092563;28;20455;-72
2022/03/29 07:43:03;;;;;;;19.23;11.03;;;;;;;;;;5092633;28;20893;-71
2022/03/29 07:45:30;;;;;;;24.13;11.57;;;;;;;;;;5092345;28;20476;-71
2022/03/29 07:47:57;;;;;;;16.43;10.60;;;;;;;;;;5092345;28;20497;-72
2022/03/29 07:50:26;;;;;;;17.33;12.27;;;;;;;;;;5092844;28;20967;-71
2022/03/29 07:52:57;;;;;;;16.10;12.00;;;;;;;;;;5091900;28;20580;-71
2022/03/29 07:55:25;;;;;;;13.33;11.87;;;;;;;;;;5092274;28;20455;-71
2022/03/29 07:57:52;;;;;;;16.57;12.87;;;;;;;;;;5092534;28;20881;-72
2022/03/29 08:00:35;;;;;;;18.60;12.27;;;;;;;;;;5092561;28;20451;-72
2022/03/29 08:03:04;;;;;;;17.00;12.10;;;;;;;;;;5092756;28;20450;-71
2022/03/29 08:05:33;;;;;;;14.33;11.03;;;;;;;;;;5092184;28;20944;-72
2022/03/29 08:08:01;;;;;;;14.40;11.57;;;;;;;;;;5092380;28;20495;-71
2022/03/29 08:10:29;;;;;;;16.90;11.47;;;;;;;;;;5092747;28;20469;-71
2022/03/29 08:12:57;;;;;;;13.13;10.53;;;;;;;;;;5092422;28;20967;-72
2022/03/29 08:15:24;;;;;;;12.67;11.17;;;;;;;;;;5092083;28;20450;-71
2022/03/29 08:17:51;;;;;;;15.90;13.03;;;;;;;;;;5092269;28;20463;-72
2022/03/29 08:20:18;;;;;;;15.60;11.67;;;;;;;;;;5092827;28;20457;-71
2022/03/29 08:22:47;;;;;;;17.30;11.77;;;;;;;;;;5096615;28;20465;-71
2022/03/29 08:25:15;;;;;;;16.40;11.60;;;;;;;;;;5096027;28;20810;-71
2022/03/29 08:27:42;;;;;;;20.50;12.77;;;;;;;;;;5096441;28;20486;-71
2022/03/29 08:30:10;;;;;;;15.00;11.33;;;;;;;;;;5096372;28;20443;-71
2022/03/29 08:32:38;;;;;;;12.87;11.00;;;;;;;;;;5096451;28;20450;-71
2022/03/29 08:35:05;;;;;;;14.27;12.77;;;;;;;;;;5095836;28;20447;-71
2022/03/29 08:37:32;;;;;;;15.60;12.50;;;;;;;;;;5096327;28;20474;-72
2022/03/29 08:40:01;;;;;;;23.10;12.77;;;;;;;;;;5096300;28;20446;-71
2022/03/29 08:42:28;;;;;;;15.70;12.03;;;;;;;;;;5096150;28;20462;-71
2022/03/29 08:44:55;;;;;;;17.53;12.50;;;;;;;;;;5095510;28;20458;-71
2022/03/29 08:47:22;;;;;;;14.87;11.50;;;;;;;;;;5096158;28;20941;-72
2022/03/29 08:49:50;;;;;;;16.70;11.60;;;;;;;;;;5096021;28;20461;-71
2022/03/29 08:52:20;;;;;;;14.70;12.57;;;;;;;;;;5094043;28;20482;-72
2022/03/29 08:54:47;;;;;;;14.43;11.77;;;;;;;;;;5095397;28;20450;-71
2022/03/29 08:57:16;;;;;;;16.60;13.07;;;;;;;;;;5092721;28;20442;-73
2022/03/29 08:59:43;;;;;;;14.87;11.63;;;;;;;;;;5076218;28;20669;-71
2022/03/29 09:02:11;;;;;;;20.83;15.33;;;;;;;;;;5073557;28;20963;-72
2022/03/29 09:04:39;;;;;;;14.87;12.20;;;;;;;;;;5073425;28;20444;-74
2022/03/29 09:07:06;;;;;;;17.70;15.30;;;;;;;;;;5073692;28;20447;-71
2022/03/29 09:09:34;;;;;;;15.73;12.63;;;;;;;;;;5073838;28;20487;-71
2022/03/29 09:12:02;;;;;;;17.80;13.40;;;;;;;;;;5073828;28;20451;-71
2022/03/29 09:14:30;;;;;;;20.90;12.43;;;;;;;;;;5073250;28;20443;-71
2022/03/29 09:16:57;;;;;;;15.23;12.50;;;;;;;;;;5073911;28;20462;-72
2022/03/29 09:19:25;;;;;;;19.13;13.20;;;;;;;;;;5073380;28;20478;-72
2022/03/29 09:21:54;;;;;;;16.87;13.00;;;;;;;;;;5074921;28;20474;-71
2022/03/29 09:24:21;;;;;;;18.63;12.53;;;;;;;;;;5074482;28;20465;-71
2022/03/29 09:26:50;;;;;;;20.63;14.40;;;;;;;;;;5074888;28;20459;-71
2022/03/29 09:29:19;;;;;;;18.43;12.73;;;;;;;;;;5074847;28;20491;-71
2022/03/29 09:31:49;;;;;;;18.23;12.97;;;;;;;;;;5074959;28;20451;-72
2022/03/29 09:34:17;;;;;;;26.97;14.23;;;;;;;;;;5073913;28;20462;-72
2022/03/29 09:36:46;;;;;;;15.17;13.57;;;;;;;;;;5074911;28;20460;-71
2022/03/29 09:39:32;;;;;;;20.30;12.40;;;;;;;;;;5074719;28;20507;-71
2022/03/29 09:42:00;;;;;;;18.33;13.43;;;;;;;;;;5074807;28;20905;-71
2022/03/29 09:44:34;;;;;;;16.30;13.27;;;;;;;;;;5074264;28;20451;-72
2022/03/29 09:47:04;;;;;;;15.03;12.73;;;;;;;;;;5074671;28;20845;-71
2022/03/29 09:49:31;;;;;;;23.93;14.43;;;;;;;;;;5074674;28;20549;-71
2022/03/29 09:52:11;;;;;;;20.87;14.00;;;;;;;;;;5072781;28;20452;-71
2022/03/29 09:54:38;;;;;;;18.43;14.10;;;;;;;;;;5074121;28;20482;-72
2022/03/29 09:57:06;;;;;;;19.50;13.50;;;;;;;;;;5074323;28;20463;-72
2022/03/29 09:59:33;;;;;;;19.43;14.10;;;;;;;;;;5074371;28;20481;-72
2022/03/29 10:02:00;;;;;;;18.53;13.27;;;;;;;;;;5074386;28;20459;-72
2022/03/29 10:04:30;;;;;;;17.00;12.93;;;;;;;;;;5073914;28;20461;-71
2022/03/29 10:06:57;;;;;;;14.77;12.30;;;;;;;;;;5074179;28;20455;-72
2022/03/29 10:09:30;;;;;;;20.47;14.07;;;;;;;;;;5074181;28;20491;-72
2022/03/29 10:11:58;;;;;;;14.43;11.67;;;;;;;;;;5074195;28;20967;-72
2022/03/29 10:14:26;;;;;;;18.10;14.37;;;;;;;;;;5073739;28;20456;-72
2022/03/29 10:16:54;;;;;;;18.63;12.37;;;;;;;;;;5073931;28;20517;-72
2022/03/29 10:19:21;;;;;;;20.00;14.57;;;;;;;;;;5074044;28;20472;-71
2022/03/29 10:21:53;;;;;;;19.43;13.57;;;;;;;;;;5073612;28;20470;-71
2022/03/29 10:24:21;;;;;;;23.93;11.97;;;;;;;;;;5069850;28;20452;-72
2022/03/29 10:26:49;;;;;;;17.73;14.60;;;;;;;;;;5072622;28;20460;-72
2022/03/29 10:29:17;;;;;;;17.63;11.97;;;;;;;;;;5072206;28;20499;-71
2022/03/29 10:31:51;;;;;;;15.60;12.60;;;;;;;;;;5072144;28;20455;-72
2022/03/29 10:34:19;;;;;;;25.00;13.00;;;;;;;;;;5071605;28;20920;-72
2022/03/29 10:37:04;;;;;;;16.57;12.53;;;;;;;;;;5092459;28;20462;-73
2022/03/29 10:39:48;;;;;;;16.93;11.63;;;;;;;;;;5092558;28;20463;-73
2022/03/29 10:42:25;;;;;;;19.30;12.70;;;;;;;;;;5092358;28;20462;-71
2022/03/29 10:44:59;;;;;;;17.47;11.23;;;;;;;;;;5092902;28;20450;-72
2022/03/29 10:47:27;;;;;;;18.30;13.27;;;;;;;;;;5093743;28;20454;-72
2022/03/29 10:49:54;;;;;;;17.43;13.60;;;;;;;;;;5093695;28;20485;-73
2022/03/29 10:52:39;;;;;;;20.13;13.83;;;;;;;;;;5091635;28;20458;-72
2022/03/29 10:55:18;;;;;;;15.83;12.20;;;;;;;;;;5092971;28;20503;-72
2022/03/29 10:58:00;;;;;;;16.50;12.03;;;;;;;;;;5087997;28;20478;-72
2022/03/29 11:00:31;;;;;;;14.93;12.87;;;;;;;;;;5088065;28;20823;-72
2022/03/29 11:03:22;;;;;;;18.17;13.50;;;;;;;;;;5078564;28;20462;-72
2022/03/29 11:06:08;;;;;;;16.17;13.63;;;;;;;;;;5076719;28;20746;-72
2022/03/29 11:08:36;;;;;;;16.70;13.77;;;;;;;;;;5092570;28;20493;-72
2022/03/29 11:11:06;;;;;;;16.20;12.20;;;;;;;;;;5090545;28;20482;-72
2022/03/29 11:13:34;;;;;;;19.60;12.30;;;;;;;;;;5091032;28;20473;-72
2022/03/29 11:16:02;;;;;;;18.70;13.30;;;;;;;;;;5091389;28;20443;-71
2022/03/29 11:18:43;;;;;;;19.77;13.03;;;;;;;;;;5091288;28;20478;-72
2022/03/29 11:21:10;;;;;;;21.27;11.63;;;;;;;;;;5091723;28;20490;-72
2022/03/29 11:23:38;;;;;;;20.43;14.50;;;;;;;;;;5091185;28;20459;-71
2022/03/29 11:26:08;;;;;;;19.40;12.60;;;;;;;;;;5091306;28;20473;-72
2022/03/29 11:28:36;;;;;;;16.23;11.90;;;;;;;;;;5091945;28;20478;-72
2022/03/29 11:31:03;;;;;;;16.00;12.63;;;;;;;;;;5091369;28;20455;-72
2022/03/29 11:33:34;;;;;;;17.33;11.60;;;;;;;;;;5090888;28;20524;-72
2022/03/29 11:36:02;;;;;;;20.13;12.63;;;;;;;;;;5091512;28;20814;-72
2022/03/29 11:38:33;;;;;;;18.00;12.20;;;;;;;;;;5091454;28;20485;-72
2022/03/29 11:41:00;;;;;;;16.20;14.07;;;;;;;;;;5090623;28;20451;-72
2022/03/29 11:43:28;;;;;;;22.20;12.37;;;;;;;;;;5090752;28;20457;-72
2022/03/29 11:45:56;;;;;;;15.90;12.10;;;;;;;;;;5092775;28;20948;-72
2022/03/29 11:48:25;;;;;;;15.30;12.33;;;;;;;;;;5092444;28;20463;-72
2022/03/29 11:50:54;;;;;;;17.10;12.73;;;;;;;;;;5092673;28;20831;-72
2022/03/29 11:53:22;;;;;;;16.37;11.83;;;;;;;;;;5090560;28;20816;-73
2022/03/29 11:55:59;;;;;;;15.97;12.20;;;;;;;;;;5091569;28;20474;-72
2022/03/29 11:58:27;;;;;;;15.37;12.80;;;;;;;;;;5092776;28;20501;-72
2022/03/29 12:00:59;;;;;;;19.90;12.50;;;;;;;;;;5092540;28;20944;-72
2022/03/29 12:03:31;;;;;;;13.00;10.53;;;;;;;;;;5092603;28;20507;-72
2022/03/29 12:06:09;;;;;;;18.33;14.27;;;;;;;;;;5092410;28;20446;-72
2022/03/29 12:08:46;;;;;;;20.33;12.10;;;;;;;;;;5092511;28;20470;-71
2022/03/29 12:11:13;;;;;;;20.03;11.73;;;;;;;;;;5092752;28;20593;-72
2022/03/29 12:13:41;;;;;;;18.10;11.57;;;;;;;;;;5091987;28;20546;-72
2022/03/29 12:16:25;;;;;;;25.03;12.27;;;;;;;;;;5092435;28;20454;-71
2022/03/29 12:18:52;;;;;;;17.77;12.40;;;;;;;;;;5092290;28;20466;-72
2022/03/29 12:21:20;;;;;;;16.30;12.20;;;;;;;;;;5092705;28;20481;-71
2022/03/29 12:23:48;;;;;;;21.93;12.87;;;;;;;;;;5091857;28;20944;-72
2022/03/29 12:26:17;;;;;;;15.20;12.23;;;;;;;;;;5092383;28;20799;-72
2022/03/29 12:28:45;;;;;;;16.90;13.27;;;;;;;;;;5092312;28;20469;-71
2022/03/29 12:31:13;;;;;;;15.40;11.47;;;;;;;;;;5092485;28;20978;-71
2022/03/29 12:33:42;;;;;;;15.27;11.00;;;;;;;;;;5092104;28;20875;-72
2022/03/29 12:36:10;;;;;;;17.23;12.30;;;;;;;;;;5092242;28;20446;-72
2022/03/29 12:38:44;;;;;;;17.07;11.60;;;;;;;;;;5092172;28;20471;-72
2022/03/29 12:41:13;;;;;;;16.27;11.83;;;;;;;;;;5092309;28;20457;-71
2022/03/29 12:43:40;;;;;;;14.80;11.47;;;;;;;;;;5091869;28;21024;-72
2022/03/29 12:46:09;;;;;;;20.03;12.70;;;;;;;;;;5092042;28;20454;-72
2022/03/29 12:48:37;;;;;;;18.03;11.83;;;;;;;;;;5092291;28;20536;-72
2022/03/29 12:51:07;;;;;;;21.63;13.93;;;;;;;;;;5092029;28;20451;-71
2022/03/29 12:53:34;;;;;;;22.60;15.03;;;;;;;;;;5090361;28;20450;-72
2022/03/29 12:56:09;;;;;;;18.73;13.70;;;;;;;;;;5091884;28;20455;-72
2022/03/29 12:58:37;;;;;;;21.17;14.33;;;;;;;;;;5092183;28;20515;-72
2022/03/29 13:01:05;;;;;;;18.33;13.30;;;;;;;;;;5092240;28;20443;-71
2022/03/29 13:03:37;;;;;;;20.53;13.27;;;;;;;;;;5091589;28;20442;-72
2022/03/29 13:06:04;;;;;;;16.60;11.03;;;;;;;;;;5091844;28;20499;-71
2022/03/29 13:08:33;;;;;;;18.87;11.30;;;;;;;;;;5095371;28;20470;-72
2022/03/29 13:11:15;;;;;;;20.00;10.43;;;;;;;;;;5095460;28;20540;-72
2022/03/29 13:13:42;;;;;;;16.20;10.67;;;;;;;;;;5095295;28;20451;-72
2022/03/29 13:16:19;;;;;;;15.13;11.23;;;;;;;;;;5095412;28;20457;-71
2022/03/29 13:18:49;;;;;;;15.63;9.93;;;;;;;;;;5096139;28;20474;-72
2022/03/29 13:21:17;;;;;;;12.40;8.47;;;;;;;;;;5095662;28;20466;-72
2022/03/29 13:23:47;;;;;;;14.03;8.80;;;;;;;;;;5095067;28;20466;-71
2022/03/29 13:26:14;;;;;;;14.13;9.83;;;;;;;;;;5095468;28;20455;-72
2022/03/29 13:28:42;;;;;;;17.80;10.53;;;;;;;;;;5095213;28;20474;-72
2022/03/29 13:31:13;;;;;;;17.90;9.43;;;;;;;;;;5095139;28;20486;-71
2022/03/29 13:33:41;;;;;;;17.43;9.63;;;;;;;;;;5094834;28;20549;-72
2022/03/29 13:36:09;;;;;;;14.83;9.80;;;;;;;;;;5095043;28;20954;-72
2022/03/29 13:38:37;;;;;;;12.73;8.60;;;;;;;;;;5094994;28;20470;-71
2022/03/29 13:41:06;;;;;;;12.50;9.57;;;;;;;;;;5095000;28;20944;-71
2022/03/29 13:43:33;;;;;;;12.40;9.23;;;;;;;;;;5094602;28;20515;-71
2022/03/29 13:46:01;;;;;;;14.70;9.63;;;;;;;;;;5095052;28;20455;-71
2022/03/29 13:48:29;;;;;;;13.60;10.70;;;;;;;;;;5095018;28;20470;-71
2022/03/29 13:50:56;;;;;;;17.03;10.40;;;;;;;;;;5094838;28;20547;-71
2022/03/29 13:53:24;;;;;;;19.23;11.43;;;;;;;;;;5092572;28;20458;-72
2022/03/29 13:55:51;;;;;;;11.30;9.77;;;;;;;;;;5094644;28;20959;-71
2022/03/29 13:58:20;;;;;;;10.47;9.37;;;;;;;;;;5094752;28;20467;-71
2022/03/29 14:00:48;;;;;;;12.17;9.43;;;;;;;;;;5094814;28;20454;-72
2022/03/29 14:03:15;;;;;;;11.77;9.40;;;;;;;;;;5094602;28;20443;-72
2022/03/29 14:05:43;;;;;;;12.07;8.20;;;;;;;;;;5094139;28;20451;-72
2022/03/29 14:08:10;;;;;;;14.80;10.47;;;;;;;;;;5094252;28;20847;-72
2022/03/29 14:10:38;;;;;;;11.23;9.17;;;;;;;;;;5094400;28;20871;-72
2022/03/29 14:13:06;;;;;;;13.60;9.20;;;;;;;;;;5094257;28;20450;-71
2022/03/29 14:15:36;;;;;;;10.83;8.80;;;;;;;;;;5093946;28;20550;-71
2022/03/29 14:18:07;;;;;;;10.20;7.90;;;;;;;;;;5093703;28;20471;-72
2022/03/29 14:20:35;;;;;;;9.37;7.73;;;;;;;;;;5094122;28;20451;-71
2022/03/29 14:23:02;;;;;;;9.43;7.73;;;;;;;;;;5093949;28;20549;-71
2022/03/29 14:25:33;;;;;;;12.53;8.60;;;;;;;;;;5093675;28;20835;-71
2022/03/29 14:28:01;;;;;;;14.27;9.10;;;;;;;;;;5093974;28;20889;-71
2022/03/29 14:30:28;;;;;;;11.77;8.77;;;;;;;;;;5093944;28;20861;-72
2022/03/29 14:32:56;;;;;;;13.43;9.27;;;;;;;;;;5093848;28;20466;-72
2022/03/29 14:35:25;;;;;;;16.43;8.93;;;;;;;;;;5093544;28;20482;-72
2022/03/29 14:37:52;;;;;;;15.17;7.80;;;;;;;;;;5093774;28;20478;-71